Fort Valley, Georgia
Current Conditions -  °F | °C
As of 9:15 PM on Friday 19 Dec 2014 (Local Time) from KPXE Reporting Station
Drizzle Drizzle  
Wind Chill: 54°   Ceiling: Unl
Heat Index: 54°   Visibility: 10mi
Dew Point: 41°   Wind: 0mph
Humidity: 62%   Direction: NA
Pressure: 30.15"   Gusts: NA
Location:  32.55°N, 83.89°W
Report Text: KPXE 200215Z AUTO 00000KT 10SM DZ SCT070 SCT085 12/05 A3015 RMK AO2 T01210049
Loading
Personal Weather Stations






























Interactive Weather Map New forecast layout! Learn more

10-Day Weather Forecast

Advertisements
Track Severe Weather on mobile